sensor_id;sensor_type;location;lat;lon;timestamp;temperature;humidity
2387;DHT22;49473;50.772;8.768;2022-09-12T00:00:39;11.60;99.90
2387;DHT22;49473;50.772;8.768;2022-09-12T00:03:06;11.60;99.90
2387;DHT22;49473;50.772;8.768;2022-09-12T00:05:33;11.60;99.90
2387;DHT22;49473;50.772;8.768;2022-09-12T00:08:00;11.60;99.90
2387;DHT22;49473;50.772;8.768;2022-09-12T00:10:26;11.50;99.90
2387;DHT22;49473;50.772;8.768;2022-09-12T00:12:54;11.40;99.90
2387;DHT22;49473;50.772;8.768;2022-09-12T00:15:21;11.40;99.90
2387;DHT22;49473;50.772;8.768;2022-09-12T00:17:48;11.40;99.90
2387;DHT22;49473;50.772;8.768;2022-09-12T00:20:15;11.40;99.90
2387;DHT22;49473;50.772;8.768;2022-09-12T00:22:41;11.40;99.90
2387;DHT22;49473;50.772;8.768;2022-09-12T00:25:10;11.30;99.90
2387;DHT22;49473;50.772;8.768;2022-09-12T00:27:37;11.20;99.90
2387;DHT22;49473;50.772;8.768;2022-09-12T00:30:06;11.20;99.90
2387;DHT22;49473;50.772;8.768;2022-09-12T00:32:33;11.20;99.90
2387;DHT22;49473;50.772;8.768;2022-09-12T00:35:00;11.20;99.90
2387;DHT22;49473;50.772;8.768;2022-09-12T00:37:27;11.20;99.90
2387;DHT22;49473;50.772;8.768;2022-09-12T00:39:56;11.10;99.90
2387;DHT22;49473;50.772;8.768;2022-09-12T00:42:23;11.10;99.90
2387;DHT22;49473;50.772;8.768;2022-09-12T00:44:51;11.10;99.90
2387;DHT22;49473;50.772;8.768;2022-09-12T00:47:22;11.20;99.90
2387;DHT22;49473;50.772;8.768;2022-09-12T00:49:53;11.20;99.90
2387;DHT22;49473;50.772;8.768;2022-09-12T00:52:25;11.20;99.90
2387;DHT22;49473;50.772;8.768;2022-09-12T00:54:57;11.10;99.90
2387;DHT22;49473;50.772;8.768;2022-09-12T00:57:28;11.20;99.90
2387;DHT22;49473;50.772;8.768;2022-09-12T01:00:00;11.10;99.90
2387;DHT22;49473;50.772;8.768;2022-09-12T01:02:31;11.10;99.90
2387;DHT22;49473;50.772;8.768;2022-09-12T01:04:59;11.10;99.90
2387;DHT22;49473;50.772;8.768;2022-09-12T01:07:26;11.20;99.90
2387;DHT22;49473;50.772;8.768;2022-09-12T01:09:55;11.10;99.90
2387;DHT22;49473;50.772;8.768;2022-09-12T01:12:21;11.00;99.90
2387;DHT22;49473;50.772;8.768;2022-09-12T01:14:48;11.00;99.90
2387;DHT22;49473;50.772;8.768;2022-09-12T01:17:15;11.00;99.90
2387;DHT22;49473;50.772;8.768;2022-09-12T01:20:20;11.00;99.90
2387;DHT22;49473;50.772;8.768;2022-09-12T01:23:20;10.90;99.90
2387;DHT22;49473;50.772;8.768;2022-09-12T01:26:01;10.90;99.90
2387;DHT22;49473;50.772;8.768;2022-09-12T01:28:41;10.80;99.90
2387;DHT22;49473;50.772;8.768;2022-09-12T01:31:18;10.80;99.90
2387;DHT22;49473;50.772;8.768;2022-09-12T01:33:55;10.80;99.90
2387;DHT22;49473;50.772;8.768;2022-09-12T01:36:42;10.80;99.90
2387;DHT22;49473;50.772;8.768;2022-09-12T01:39:19;10.80;99.90
2387;DHT22;49473;50.772;8.768;2022-09-12T01:41:52;10.70;99.90
2387;DHT22;49473;50.772;8.768;2022-09-12T01:44:25;10.70;99.90
2387;DHT22;49473;50.772;8.768;2022-09-12T01:46:58;10.60;99.90
2387;DHT22;49473;50.772;8.768;2022-09-12T01:49:31;10.60;99.90
2387;DHT22;49473;50.772;8.768;2022-09-12T01:52:04;10.50;99.90
2387;DHT22;49473;50.772;8.768;2022-09-12T01:54:37;10.50;99.90
2387;DHT22;49473;50.772;8.768;2022-09-12T01:57:11;10.50;99.90
2387;DHT22;49473;50.772;8.768;2022-09-12T01:59:43;10.60;99.90
2387;DHT22;49473;50.772;8.768;2022-09-12T02:02:14;10.50;99.90
2387;DHT22;49473;50.772;8.768;2022-09-12T02:04:47;10.50;99.90
2387;DHT22;49473;50.772;8.768;2022-09-12T02:07:19;10.40;99.90
2387;DHT22;49473;50.772;8.768;2022-09-12T02:09:51;10.40;99.90
2387;DHT22;49473;50.772;8.768;2022-09-12T02:12:26;10.30;99.90
2387;DHT22;49473;50.772;8.768;2022-09-12T02:14:58;10.30;99.90
2387;DHT22;49473;50.772;8.768;2022-09-12T02:17:29;10.20;99.90
2387;DHT22;49473;50.772;8.768;2022-09-12T02:20:02;10.20;99.90
2387;DHT22;49473;50.772;8.768;2022-09-12T02:22:35;10.20;99.90
2387;DHT22;49473;50.772;8.768;2022-09-12T02:25:05;10.10;99.90
2387;DHT22;49473;50.772;8.768;2022-09-12T02:27:36;10.10;99.90
2387;DHT22;49473;50.772;8.768;2022-09-12T02:30:07;10.10;99.90
2387;DHT22;49473;50.772;8.768;2022-09-12T02:35:57;10.20;99.90
2387;DHT22;49473;50.772;8.768;2022-09-12T02:38:27;10.20;99.90
2387;DHT22;49473;50.772;8.768;2022-09-12T02:40:56;10.20;99.90
2387;DHT22;49473;50.772;8.768;2022-09-12T02:43:23;10.10;99.90
2387;DHT22;49473;50.772;8.768;2022-09-12T02:45:50;10.10;99.90
2387;DHT22;49473;50.772;8.768;2022-09-12T02:48:20;10.10;99.90
2387;DHT22;49473;50.772;8.768;2022-09-12T02:50:48;10.00;99.90
2387;DHT22;49473;50.772;8.768;2022-09-12T02:53:17;10.00;99.90
2387;DHT22;49473;50.772;8.768;2022-09-12T02:55:44;10.00;99.90
2387;DHT22;49473;50.772;8.768;2022-09-12T02:58:17;10.00;99.90
2387;DHT22;49473;50.772;8.768;2022-09-12T03:00:52;10.10;99.90
2387;DHT22;49473;50.772;8.768;2022-09-12T03:03:32;10.10;99.90
2387;DHT22;49473;50.772;8.768;2022-09-12T03:06:02;10.10;99.90
2387;DHT22;49473;50.772;8.768;2022-09-12T03:08:52;10.00;99.90
2387;DHT22;49473;50.772;8.768;2022-09-12T03:11:44;10.00;99.90
2387;DHT22;49473;50.772;8.768;2022-09-12T03:14:25;9.90;99.90
2387;DHT22;49473;50.772;8.768;2022-09-12T03:17:05;9.90;99.90
2387;DHT22;49473;50.772;8.768;2022-09-12T03:19:41;10.00;99.90
2387;DHT22;49473;50.772;8.768;2022-09-12T03:22:17;9.90;99.90
2387;DHT22;49473;50.772;8.768;2022-09-12T03:24:50;9.90;99.90
2387;DHT22;49473;50.772;8.768;2022-09-12T03:27:21;9.80;99.90
2387;DHT22;49473;50.772;8.768;2022-09-12T03:29:52;9.90;99.90
2387;DHT22;49473;50.772;8.768;2022-09-12T03:32:19;9.90;99.90
2387;DHT22;49473;50.772;8.768;2022-09-12T03:34:48;9.70;99.90
2387;DHT22;49473;50.772;8.768;2022-09-12T03:37:14;9.70;99.90
2387;DHT22;49473;50.772;8.768;2022-09-12T03:39:41;9.80;99.90
2387;DHT22;49473;50.772;8.768;2022-09-12T03:42:09;9.80;99.90
2387;DHT22;49473;50.772;8.768;2022-09-12T03:44:36;9.90;99.90
2387;DHT22;49473;50.772;8.768;2022-09-12T03:47:03;9.90;99.90
2387;DHT22;49473;50.772;8.768;2022-09-12T03:49:30;9.80;99.90
2387;DHT22;49473;50.772;8.768;2022-09-12T03:51:56;9.70;99.90
2387;DHT22;49473;50.772;8.768;2022-09-12T03:54:23;9.80;99.90
2387;DHT22;49473;50.772;8.768;2022-09-12T03:56:50;9.80;99.90
2387;DHT22;49473;50.772;8.768;2022-09-12T03:59:18;9.80;99.90
2387;DHT22;49473;50.772;8.768;2022-09-12T04:01:45;9.80;99.90
2387;DHT22;49473;50.772;8.768;2022-09-12T04:04:11;9.70;99.90
2387;DHT22;49473;50.772;8.768;2022-09-12T04:06:38;9.80;99.90
2387;DHT22;49473;50.772;8.768;2022-09-12T04:09:06;9.70;99.90
2387;DHT22;49473;50.772;8.768;2022-09-12T04:11:33;9.70;99.90
2387;DHT22;49473;50.772;8.768;2022-09-12T04:14:00;9.70;99.90
2387;DHT22;49473;50.772;8.768;2022-09-12T04:16:28;9.70;99.90
2387;DHT22;49473;50.772;8.768;2022-09-12T04:18:55;9.70;99.90
2387;DHT22;49473;50.772;8.768;2022-09-12T04:21:22;9.70;99.90
2387;DHT22;49473;50.772;8.768;2022-09-12T04:23:48;9.80;99.90
2387;DHT22;49473;50.772;8.768;2022-09-12T04:26:16;9.90;99.90
2387;DHT22;49473;50.772;8.768;2022-09-12T04:28:43;9.90;99.90
2387;DHT22;49473;50.772;8.768;2022-09-12T04:31:12;10.00;99.90
2387;DHT22;49473;50.772;8.768;2022-09-12T04:33:41;10.00;99.90
2387;DHT22;49473;50.772;8.768;2022-09-12T04:36:10;9.90;99.90
2387;DHT22;49473;50.772;8.768;2022-09-12T04:38:39;9.90;99.90
2387;DHT22;49473;50.772;8.768;2022-09-12T04:41:16;9.90;99.90
2387;DHT22;49473;50.772;8.768;2022-09-12T04:43:44;9.90;99.90
2387;DHT22;49473;50.772;8.768;2022-09-12T04:46:13;10.00;99.90
2387;DHT22;49473;50.772;8.768;2022-09-12T04:48:42;9.90;99.90
2387;DHT22;49473;50.772;8.768;2022-09-12T04:51:11;9.80;99.90
2387;DHT22;49473;50.772;8.768;2022-09-12T04:53:38;9.70;99.90
2387;DHT22;49473;50.772;8.768;2022-09-12T04:56:07;9.70;99.90
2387;DHT22;49473;50.772;8.768;2022-09-12T04:58:34;9.70;99.90
2387;DHT22;49473;50.772;8.768;2022-09-12T05:01:06;9.70;99.90
2387;DHT22;49473;50.772;8.768;2022-09-12T05:03:33;9.70;99.90
2387;DHT22;49473;50.772;8.768;2022-09-12T05:06:03;9.70;99.90
2387;DHT22;49473;50.772;8.768;2022-09-12T05:08:30;9.70;99.90
2387;DHT22;49473;50.772;8.768;2022-09-12T05:11:01;9.70;99.90
2387;DHT22;49473;50.772;8.768;2022-09-12T05:13:28;9.70;99.90
2387;DHT22;49473;50.772;8.768;2022-09-12T05:15:54;9.60;99.90
2387;DHT22;49473;50.772;8.768;2022-09-12T05:18:21;9.60;99.90
2387;DHT22;49473;50.772;8.768;2022-09-12T05:20:49;9.50;99.90
2387;DHT22;49473;50.772;8.768;2022-09-12T05:23:17;9.50;99.90
2387;DHT22;49473;50.772;8.768;2022-09-12T05:25:47;9.60;99.90
2387;DHT22;49473;50.772;8.768;2022-09-12T05:28:15;9.70;99.90
2387;DHT22;49473;50.772;8.768;2022-09-12T05:30:42;9.80;99.90
2387;DHT22;49473;50.772;8.768;2022-09-12T05:33:08;9.90;99.90
2387;DHT22;49473;50.772;8.768;2022-09-12T05:35:35;9.90;99.90
2387;DHT22;49473;50.772;8.768;2022-09-12T05:38:03;9.90;99.90
2387;DHT22;49473;50.772;8.768;2022-09-12T05:40:32;9.90;99.90
2387;DHT22;49473;50.772;8.768;2022-09-12T05:42:58;10.00;99.90
2387;DHT22;49473;50.772;8.768;2022-09-12T05:45:25;10.10;99.90
2387;DHT22;49473;50.772;8.768;2022-09-12T05:47:52;10.20;99.90
2387;DHT22;49473;50.772;8.768;2022-09-12T05:50:19;10.20;99.90
2387;DHT22;49473;50.772;8.768;2022-09-12T05:52:46;10.50;99.90
2387;DHT22;49473;50.772;8.768;2022-09-12T05:55:13;10.70;99.90
2387;DHT22;49473;50.772;8.768;2022-09-12T05:57:44;11.00;99.90
2387;DHT22;49473;50.772;8.768;2022-09-12T06:00:12;11.50;99.90
2387;DHT22;49473;50.772;8.768;2022-09-12T06:02:40;11.60;99.90
2387;DHT22;49473;50.772;8.768;2022-09-12T06:05:07;11.80;99.90
2387;DHT22;49473;50.772;8.768;2022-09-12T06:07:35;11.90;99.90
2387;DHT22;49473;50.772;8.768;2022-09-12T06:10:01;12.20;99.90
2387;DHT22;49473;50.772;8.768;2022-09-12T06:12:29;12.40;99.90
2387;DHT22;49473;50.772;8.768;2022-09-12T06:14:58;12.50;99.90
2387;DHT22;49473;50.772;8.768;2022-09-12T06:17:24;12.50;99.90
2387;DHT22;49473;50.772;8.768;2022-09-12T06:19:51;12.60;99.90
2387;DHT22;49473;50.772;8.768;2022-09-12T06:22:18;12.60;99.90
2387;DHT22;49473;50.772;8.768;2022-09-12T06:24:45;12.90;99.90
2387;DHT22;49473;50.772;8.768;2022-09-12T06:27:12;13.80;99.90
2387;DHT22;49473;50.772;8.768;2022-09-12T06:29:39;14.40;99.90
2387;DHT22;49473;50.772;8.768;2022-09-12T06:32:07;14.70;99.90
2387;DHT22;49473;50.772;8.768;2022-09-12T06:34:36;14.80;99.90
2387;DHT22;49473;50.772;8.768;2022-09-12T06:37:02;15.00;99.90
2387;DHT22;49473;50.772;8.768;2022-09-12T06:39:29;15.00;99.90
2387;DHT22;49473;50.772;8.768;2022-09-12T06:41:57;15.40;99.90
2387;DHT22;49473;50.772;8.768;2022-09-12T06:44:23;15.80;99.90
2387;DHT22;49473;50.772;8.768;2022-09-12T06:46:50;16.50;99.90
2387;DHT22;49473;50.772;8.768;2022-09-12T06:49:19;16.70;99.90
2387;DHT22;49473;50.772;8.768;2022-09-12T06:51:46;17.10;99.90
2387;DHT22;49473;50.772;8.768;2022-09-12T06:54:13;16.80;99.90
2387;DHT22;49473;50.772;8.768;2022-09-12T06:56:41;17.70;99.90
2387;DHT22;49473;50.772;8.768;2022-09-12T06:59:08;17.50;99.90
2387;DHT22;49473;50.772;8.768;2022-09-12T07:01:34;17.00;99.90
2387;DHT22;49473;50.772;8.768;2022-09-12T07:04:02;17.20;99.90
2387;DHT22;49473;50.772;8.768;2022-09-12T07:06:37;17.20;99.90
2387;DHT22;49473;50.772;8.768;2022-09-12T07:09:06;16.20;99.90
2387;DHT22;49473;50.772;8.768;2022-09-12T07:11:36;15.90;99.90
2387;DHT22;49473;50.772;8.768;2022-09-12T07:14:04;16.00;99.90
2387;DHT22;49473;50.772;8.768;2022-09-12T07:16:33;16.20;99.90
2387;DHT22;49473;50.772;8.768;2022-09-12T07:19:02;16.50;99.90
2387;DHT22;49473;50.772;8.768;2022-09-12T07:21:30;16.80;99.90
2387;DHT22;49473;50.772;8.768;2022-09-12T07:23:58;16.80;99.90
2387;DHT22;49473;50.772;8.768;2022-09-12T07:26:26;16.90;99.90
2387;DHT22;49473;50.772;8.768;2022-09-12T07:28:55;17.00;99.90
2387;DHT22;49473;50.772;8.768;2022-09-12T07:31:25;16.70;99.90
2387;DHT22;49473;50.772;8.768;2022-09-12T07:33:52;16.40;99.90
2387;DHT22;49473;50.772;8.768;2022-09-12T07:36:20;15.90;99.90
2387;DHT22;49473;50.772;8.768;2022-09-12T07:38:52;16.00;99.90
2387;DHT22;49473;50.772;8.768;2022-09-12T07:41:21;15.90;99.90
2387;DHT22;49473;50.772;8.768;2022-09-12T07:43:51;15.90;99.90
2387;DHT22;49473;50.772;8.768;2022-09-12T07:46:18;15.60;99.90
2387;DHT22;49473;50.772;8.768;2022-09-12T07:48:48;15.90;99.90
2387;DHT22;49473;50.772;8.768;2022-09-12T07:51:16;16.20;99.90
2387;DHT22;49473;50.772;8.768;2022-09-12T07:53:43;16.50;99.90
2387;DHT22;49473;50.772;8.768;2022-09-12T07:56:11;17.00;99.90
2387;DHT22;49473;50.772;8.768;2022-09-12T07:58:39;17.40;99.90
2387;DHT22;49473;50.772;8.768;2022-09-12T08:01:07;17.40;99.90
2387;DHT22;49473;50.772;8.768;2022-09-12T08:03:34;17.40;99.90
2387;DHT22;49473;50.772;8.768;2022-09-12T08:06:05;17.30;99.90
2387;DHT22;49473;50.772;8.768;2022-09-12T08:08:32;17.10;99.90
2387;DHT22;49473;50.772;8.768;2022-09-12T08:11:00;16.70;99.90
2387;DHT22;49473;50.772;8.768;2022-09-12T08:13:29;16.90;99.90
2387;DHT22;49473;50.772;8.768;2022-09-12T08:15:57;17.30;99.90
2387;DHT22;49473;50.772;8.768;2022-09-12T08:18:25;17.40;99.90
2387;DHT22;49473;50.772;8.768;2022-09-12T08:20:56;17.50;99.90
2387;DHT22;49473;50.772;8.768;2022-09-12T08:23:23;17.60;99.90
2387;DHT22;49473;50.772;8.768;2022-09-12T08:25:50;18.00;99.90
2387;DHT22;49473;50.772;8.768;2022-09-12T08:28:16;18.50;99.90
2387;DHT22;49473;50.772;8.768;2022-09-12T08:30:44;19.10;99.90
2387;DHT22;49473;50.772;8.768;2022-09-12T08:33:11;19.40;99.90
2387;DHT22;49473;50.772;8.768;2022-09-12T08:35:39;20.00;99.90
2387;DHT22;49473;50.772;8.768;2022-09-12T08:38:06;20.10;99.90
2387;DHT22;49473;50.772;8.768;2022-09-12T08:40:43;20.30;99.90
2387;DHT22;49473;50.772;8.768;2022-09-12T08:43:24;20.40;99.90
2387;DHT22;49473;50.772;8.768;2022-09-12T08:45:59;20.80;99.90
2387;DHT22;49473;50.772;8.768;2022-09-12T08:48:27;21.30;99.90
2387;DHT22;49473;50.772;8.768;2022-09-12T08:50:54;22.40;99.90
2387;DHT22;49473;50.772;8.768;2022-09-12T08:53:23;23.50;99.90
2387;DHT22;49473;50.772;8.768;2022-09-12T08:55:57;24.60;99.90
2387;DHT22;49473;50.772;8.768;2022-09-12T08:58:26;24.60;99.90
2387;DHT22;49473;50.772;8.768;2022-09-12T09:00:59;24.70;99.90
2387;DHT22;49473;50.772;8.768;2022-09-12T09:03:46;24.70;99.90
2387;DHT22;49473;50.772;8.768;2022-09-12T09:06:31;25.20;99.90
2387;DHT22;49473;50.772;8.768;2022-09-12T09:09:05;25.50;99.90
2387;DHT22;49473;50.772;8.768;2022-09-12T09:11:42;25.90;99.90
2387;DHT22;49473;50.772;8.768;2022-09-12T09:14:35;25.90;99.90
2387;DHT22;49473;50.772;8.768;2022-09-12T09:17:20;26.20;99.90
2387;DHT22;49473;50.772;8.768;2022-09-12T09:19:54;27.10;99.90
2387;DHT22;49473;50.772;8.768;2022-09-12T09:22:30;27.00;99.90
2387;DHT22;49473;50.772;8.768;2022-09-12T09:25:01;26.90;99.90
2387;DHT22;49473;50.772;8.768;2022-09-12T09:27:31;26.10;99.90
2387;DHT22;49473;50.772;8.768;2022-09-12T09:29:59;26.60;99.90
2387;DHT22;49473;50.772;8.768;2022-09-12T09:32:30;25.90;99.90
2387;DHT22;49473;50.772;8.768;2022-09-12T09:35:14;26.40;99.90
2387;DHT22;49473;50.772;8.768;2022-09-12T09:37:43;26.20;99.90
2387;DHT22;49473;50.772;8.768;2022-09-12T09:40:21;26.40;99.90
2387;DHT22;49473;50.772;8.768;2022-09-12T09:42:55;25.80;99.90
2387;DHT22;49473;50.772;8.768;2022-09-12T09:45:24;25.40;99.90
2387;DHT22;49473;50.772;8.768;2022-09-12T09:47:57;25.40;99.90
2387;DHT22;49473;50.772;8.768;2022-09-12T09:50:26;25.30;99.90
2387;DHT22;49473;50.772;8.768;2022-09-12T09:52:56;25.40;99.90
2387;DHT22;49473;50.772;8.768;2022-09-12T09:55:29;25.40;99.90
2387;DHT22;49473;50.772;8.768;2022-09-12T09:57:58;25.20;99.90
2387;DHT22;49473;50.772;8.768;2022-09-12T10:00:30;25.20;99.90
2387;DHT22;49473;50.772;8.768;2022-09-12T10:03:05;25.40;99.90
2387;DHT22;49473;50.772;8.768;2022-09-12T10:05:34;25.40;99.90
2387;DHT22;49473;50.772;8.768;2022-09-12T10:08:03;25.60;99.90
2387;DHT22;49473;50.772;8.768;2022-09-12T10:10:32;25.80;99.90
2387;DHT22;49473;50.772;8.768;2022-09-12T10:13:07;26.20;99.90
2387;DHT22;49473;50.772;8.768;2022-09-12T10:15:35;27.00;99.90
2387;DHT22;49473;50.772;8.768;2022-09-12T10:18:04;27.00;99.90
2387;DHT22;49473;50.772;8.768;2022-09-12T10:20:34;27.10;99.90
2387;DHT22;49473;50.772;8.768;2022-09-12T10:23:04;27.30;99.90
2387;DHT22;49473;50.772;8.768;2022-09-12T10:25:44;27.60;99.90
2387;DHT22;49473;50.772;8.768;2022-09-12T10:28:20;27.80;99.90
2387;DHT22;49473;50.772;8.768;2022-09-12T10:30:52;28.60;99.90
2387;DHT22;49473;50.772;8.768;2022-09-12T10:33:22;28.90;99.90
2387;DHT22;49473;50.772;8.768;2022-09-12T10:35:52;29.20;99.90
2387;DHT22;49473;50.772;8.768;2022-09-12T10:38:22;29.80;99.90
2387;DHT22;49473;50.772;8.768;2022-09-12T10:40:55;30.10;99.90
2387;DHT22;49473;50.772;8.768;2022-09-12T10:43:26;30.00;99.90
2387;DHT22;49473;50.772;8.768;2022-09-12T10:45:56;29.90;99.90
2387;DHT22;49473;50.772;8.768;2022-09-12T10:48:27;29.60;99.90
2387;DHT22;49473;50.772;8.768;2022-09-12T10:50:55;28.40;99.90
2387;DHT22;49473;50.772;8.768;2022-09-12T10:53:23;28.10;99.90
2387;DHT22;49473;50.772;8.768;2022-09-12T10:56:12;27.80;99.90
2387;DHT22;49473;50.772;8.768;2022-09-12T11:01:40;27.80;99.90
2387;DHT22;49473;50.772;8.768;2022-09-12T11:04:21;27.80;99.90
2387;DHT22;49473;50.772;8.768;2022-09-12T11:07:03;29.20;99.90
2387;DHT22;49473;50.772;8.768;2022-09-12T11:09:37;30.60;99.90
2387;DHT22;49473;50.772;8.768;2022-09-12T11:12:12;32.30;99.90
2387;DHT22;49473;50.772;8.768;2022-09-12T11:14:53;33.40;98.00
2387;DHT22;49473;50.772;8.768;2022-09-12T11:17:35;33.90;96.30
2387;DHT22;49473;50.772;8.768;2022-09-12T11:20:27;34.20;94.30
2387;DHT22;49473;50.772;8.768;2022-09-12T11:23:14;34.60;93.70
2387;DHT22;49473;50.772;8.768;2022-09-12T11:25:50;34.80;92.00
2387;DHT22;49473;50.772;8.768;2022-09-12T11:28:35;33.90;91.20
2387;DHT22;49473;50.772;8.768;2022-09-12T11:31:18;35.40;91.90
2387;DHT22;49473;50.772;8.768;2022-09-12T11:33:51;36.20;85.00
2387;DHT22;49473;50.772;8.768;2022-09-12T11:36:28;37.20;82.40
2387;DHT22;49473;50.772;8.768;2022-09-12T11:39:07;37.70;82.10
2387;DHT22;49473;50.772;8.768;2022-09-12T11:41:40;37.40;77.90
2387;DHT22;49473;50.772;8.768;2022-09-12T11:44:14;35.90;78.60
2387;DHT22;49473;50.772;8.768;2022-09-12T11:46:42;33.80;77.70
2387;DHT22;49473;50.772;8.768;2022-09-12T11:49:18;31.60;83.70
2387;DHT22;49473;50.772;8.768;2022-09-12T11:51:51;30.70;89.20
2387;DHT22;49473;50.772;8.768;2022-09-12T11:54:23;31.00;90.20
2387;DHT22;49473;50.772;8.768;2022-09-12T11:56:56;31.90;86.10
2387;DHT22;49473;50.772;8.768;2022-09-12T11:59:31;32.50;85.60
2387;DHT22;49473;50.772;8.768;2022-09-12T12:01:59;32.80;84.90
2387;DHT22;49473;50.772;8.768;2022-09-12T12:04:33;31.60;83.30
2387;DHT22;49473;50.772;8.768;2022-09-12T12:07:05;31.20;88.00
2387;DHT22;49473;50.772;8.768;2022-09-12T12:09:33;30.80;89.50
2387;DHT22;49473;50.772;8.768;2022-09-12T12:12:03;30.70;87.00
2387;DHT22;49473;50.772;8.768;2022-09-12T12:14:37;29.80;90.10
2387;DHT22;49473;50.772;8.768;2022-09-12T12:17:13;29.00;90.90
2387;DHT22;49473;50.772;8.768;2022-09-12T12:19:41;29.30;92.90
2387;DHT22;49473;50.772;8.768;2022-09-12T12:22:17;30.20;91.10
2387;DHT22;49473;50.772;8.768;2022-09-12T12:25:07;31.30;89.60
2387;DHT22;49473;50.772;8.768;2022-09-12T12:27:50;32.50;88.80
2387;DHT22;49473;50.772;8.768;2022-09-12T12:33:51;31.50;84.60
2387;DHT22;49473;50.772;8.768;2022-09-12T12:36:32;30.40;87.80
2387;DHT22;49473;50.772;8.768;2022-09-12T12:45:57;34.60;75.40
2387;DHT22;49473;50.772;8.768;2022-09-12T12:48:25;35.70;73.00
2387;DHT22;49473;50.772;8.768;2022-09-12T12:51:21;36.90;73.10
2387;DHT22;49473;50.772;8.768;2022-09-12T12:53:50;37.60;70.00
2387;DHT22;49473;50.772;8.768;2022-09-12T12:56:33;38.20;66.00
2387;DHT22;49473;50.772;8.768;2022-09-12T12:59:02;38.30;65.10
2387;DHT22;49473;50.772;8.768;2022-09-12T13:01:31;37.70;59.90
2387;DHT22;49473;50.772;8.768;2022-09-12T13:04:11;37.90;59.10
2387;DHT22;49473;50.772;8.768;2022-09-12T13:06:41;38.90;60.30
2387;DHT22;49473;50.772;8.768;2022-09-12T13:09:18;38.70;57.80
2387;DHT22;49473;50.772;8.768;2022-09-12T13:11:56;37.10;58.90
2387;DHT22;49473;50.772;8.768;2022-09-12T13:14:49;34.80;62.40
2387;DHT22;49473;50.772;8.768;2022-09-12T13:17:23;34.30;62.00
2387;DHT22;49473;50.772;8.768;2022-09-12T13:19:53;35.20;61.70
2387;DHT22;49473;50.772;8.768;2022-09-12T13:22:22;36.50;62.60
2387;DHT22;49473;50.772;8.768;2022-09-12T13:24:49;37.10;57.70
2387;DHT22;49473;50.772;8.768;2022-09-12T13:27:21;37.30;58.10
2387;DHT22;49473;50.772;8.768;2022-09-12T13:29:48;35.90;57.40
2387;DHT22;49473;50.772;8.768;2022-09-12T13:32:15;34.10;59.40
2387;DHT22;49473;50.772;8.768;2022-09-12T13:35:02;32.20;63.00
2387;DHT22;49473;50.772;8.768;2022-09-12T13:37:43;30.50;65.20
2387;DHT22;49473;50.772;8.768;2022-09-12T13:40:26;29.40;68.80
2387;DHT22;49473;50.772;8.768;2022-09-12T13:43:08;28.20;71.60
2387;DHT22;49473;50.772;8.768;2022-09-12T13:45:38;27.70;75.20
2387;DHT22;49473;50.772;8.768;2022-09-12T13:48:11;27.70;77.90
2387;DHT22;49473;50.772;8.768;2022-09-12T13:50:41;27.60;77.00
2387;DHT22;49473;50.772;8.768;2022-09-12T13:53:13;27.40;76.70
2387;DHT22;49473;50.772;8.768;2022-09-12T13:55:44;27.00;71.50
2387;DHT22;49473;50.772;8.768;2022-09-12T13:58:19;26.50;73.90
2387;DHT22;49473;50.772;8.768;2022-09-12T14:00:59;25.90;76.40
2387;DHT22;49473;50.772;8.768;2022-09-12T14:03:28;25.40;76.40
2387;DHT22;49473;50.772;8.768;2022-09-12T14:06:12;25.30;77.40
2387;DHT22;49473;50.772;8.768;2022-09-12T14:08:44;25.10;78.10
2387;DHT22;49473;50.772;8.768;2022-09-12T14:11:17;25.10;80.10
2387;DHT22;49473;50.772;8.768;2022-09-12T14:13:48;24.50;80.40
2387;DHT22;49473;50.772;8.768;2022-09-12T14:16:17;24.30;80.90
2387;DHT22;49473;50.772;8.768;2022-09-12T14:18:46;24.30;81.90
2387;DHT22;49473;50.772;8.768;2022-09-12T14:21:25;24.40;83.00
2387;DHT22;49473;50.772;8.768;2022-09-12T14:23:56;24.40;83.40
2387;DHT22;49473;50.772;8.768;2022-09-12T14:26:24;24.30;85.30
2387;DHT22;49473;50.772;8.768;2022-09-12T14:28:54;24.20;84.30
2387;DHT22;49473;50.772;8.768;2022-09-12T14:31:23;24.00;85.80
2387;DHT22;49473;50.772;8.768;2022-09-12T14:33:52;23.90;86.60
2387;DHT22;49473;50.772;8.768;2022-09-12T14:36:24;23.90;85.00
2387;DHT22;49473;50.772;8.768;2022-09-12T14:38:53;23.90;86.60
2387;DHT22;49473;50.772;8.768;2022-09-12T14:41:24;23.70;86.40
2387;DHT22;49473;50.772;8.768;2022-09-12T14:43:54;23.60;87.00
2387;DHT22;49473;50.772;8.768;2022-09-12T14:46:25;23.70;90.80
2387;DHT22;49473;50.772;8.768;2022-09-12T14:48:55;23.70;87.20
2387;DHT22;49473;50.772;8.768;2022-09-12T14:51:26;23.90;86.90
2387;DHT22;49473;50.772;8.768;2022-09-12T14:53:53;24.50;85.50
2387;DHT22;49473;50.772;8.768;2022-09-12T14:56:21;25.70;86.00
2387;DHT22;49473;50.772;8.768;2022-09-12T14:59:26;26.70;79.90
2387;DHT22;49473;50.772;8.768;2022-09-12T15:02:25;26.20;77.60
2387;DHT22;49473;50.772;8.768;2022-09-12T15:04:53;25.60;78.70
2387;DHT22;49473;50.772;8.768;2022-09-12T15:07:28;25.90;79.70
2387;DHT22;49473;50.772;8.768;2022-09-12T15:09:58;26.30;76.90
2387;DHT22;49473;50.772;8.768;2022-09-12T15:12:25;26.70;78.20
2387;DHT22;49473;50.772;8.768;2022-09-12T15:14:57;26.80;77.50
2387;DHT22;49473;50.772;8.768;2022-09-12T15:17:25;26.50;75.60
2387;DHT22;49473;50.772;8.768;2022-09-12T15:19:51;25.60;76.80
2387;DHT22;49473;50.772;8.768;2022-09-12T15:22:19;25.10;79.00
2387;DHT22;49473;50.772;8.768;2022-09-12T15:24:48;24.80;79.50
2387;DHT22;49473;50.772;8.768;2022-09-12T15:27:15;24.80;80.10
2387;DHT22;49473;50.772;8.768;2022-09-12T15:29:42;24.50;79.70
2387;DHT22;49473;50.772;8.768;2022-09-12T15:32:22;24.40;82.90
2387;DHT22;49473;50.772;8.768;2022-09-12T15:34:48;24.30;86.00
2387;DHT22;49473;50.772;8.768;2022-09-12T15:37:16;24.40;84.10
2387;DHT22;49473;50.772;8.768;2022-09-12T15:39:43;24.20;82.10
2387;DHT22;49473;50.772;8.768;2022-09-12T15:42:11;24.10;83.60
2387;DHT22;49473;50.772;8.768;2022-09-12T15:44:39;24.00;85.50
2387;DHT22;49473;50.772;8.768;2022-09-12T15:47:07;24.00;85.50
2387;DHT22;49473;50.772;8.768;2022-09-12T15:49:37;24.00;88.20
2387;DHT22;49473;50.772;8.768;2022-09-12T15:52:04;23.90;85.70
2387;DHT22;49473;50.772;8.768;2022-09-12T15:54:31;23.70;85.60
2387;DHT22;49473;50.772;8.768;2022-09-12T15:56:58;23.60;86.80
2387;DHT22;49473;50.772;8.768;2022-09-12T15:59:24;23.50;87.90
2387;DHT22;49473;50.772;8.768;2022-09-12T16:01:51;23.50;89.60
2387;DHT22;49473;50.772;8.768;2022-09-12T16:04:20;23.40;90.20
2387;DHT22;49473;50.772;8.768;2022-09-12T16:06:49;23.40;91.30
2387;DHT22;49473;50.772;8.768;2022-09-12T16:09:16;23.30;90.10
2387;DHT22;49473;50.772;8.768;2022-09-12T16:11:43;23.30;90.50
2387;DHT22;49473;50.772;8.768;2022-09-12T16:14:12;23.30;91.20
2387;DHT22;49473;50.772;8.768;2022-09-12T16:16:39;23.30;90.90
2387;DHT22;49473;50.772;8.768;2022-09-12T16:19:06;23.30;91.70
2387;DHT22;49473;50.772;8.768;2022-09-12T16:21:33;23.10;92.70
2387;DHT22;49473;50.772;8.768;2022-09-12T16:24:02;22.90;92.60
2387;DHT22;49473;50.772;8.768;2022-09-12T16:26:29;22.90;92.40
2387;DHT22;49473;50.772;8.768;2022-09-12T16:28:55;22.80;92.70